Aviation Digital Data Service (ADDS)

Output produced by METARs form (0305 UTC 28 August 2014)
found at http://aviationweather.gov/adds/metars/
 
KSSI 272340Z 2800/2824 08006KT P6SM SKC 
     FM280300 VRB03KT P6SM SKC 
     FM281600 12008KT P6SM SCT050